createdAt,value
2018-07-30T00:01:06.088Z,24.90
2018-07-30T00:03:34.208Z,24.90
2018-07-30T00:06:02.320Z,24.80
2018-07-30T00:08:30.459Z,24.80
2018-07-30T00:10:58.568Z,24.80
2018-07-30T00:13:26.662Z,24.70
2018-07-30T00:15:54.787Z,24.70
2018-07-30T00:18:22.895Z,24.70
2018-07-30T00:20:51.011Z,24.60
2018-07-30T00:23:19.157Z,24.60
2018-07-30T00:25:47.255Z,24.60
2018-07-30T00:28:15.430Z,24.60
2018-07-30T00:30:43.536Z,24.60
2018-07-30T00:33:11.656Z,24.60
2018-07-30T00:35:39.742Z,24.50
2018-07-30T00:38:07.989Z,24.50
2018-07-30T00:40:36.087Z,24.40
2018-07-30T00:43:04.173Z,24.30
2018-07-30T00:45:32.294Z,24.20
2018-07-30T00:48:00.406Z,24.20
2018-07-30T00:50:28.511Z,24.20
2018-07-30T00:52:56.647Z,24.20
2018-07-30T00:55:24.781Z,24.20
2018-07-30T00:57:52.868Z,24.20
2018-07-30T01:00:21.002Z,24.20
2018-07-30T01:02:49.174Z,24.20
2018-07-30T01:05:17.283Z,24.10
2018-07-30T01:07:45.502Z,24.10
2018-07-30T01:10:13.515Z,24.00
2018-07-30T01:12:41.771Z,24.00
2018-07-30T01:15:09.974Z,23.90
2018-07-30T01:17:38.084Z,23.90
2018-07-30T01:20:06.395Z,23.80
2018-07-30T01:22:34.533Z,23.80
2018-07-30T01:25:02.825Z,23.70
2018-07-30T01:27:30.965Z,23.70
2018-07-30T01:29:59.064Z,23.70
2018-07-30T01:32:27.206Z,23.70
2018-07-30T01:34:55.307Z,23.70
2018-07-30T01:37:23.427Z,23.70
2018-07-30T01:39:51.560Z,23.70
2018-07-30T01:42:19.671Z,23.60
2018-07-30T01:44:47.843Z,23.60
2018-07-30T01:47:15.980Z,23.60
2018-07-30T01:49:44.128Z,23.50
2018-07-30T01:52:12.253Z,23.50
2018-07-30T01:54:40.396Z,23.40
2018-07-30T01:57:08.496Z,23.40
2018-07-30T01:59:36.599Z,23.40
2018-07-30T02:02:04.711Z,23.40
2018-07-30T02:04:32.792Z,23.40
2018-07-30T02:07:00.895Z,23.30
2018-07-30T02:09:29.020Z,23.30
2018-07-30T02:11:57.136Z,23.20
2018-07-30T02:14:25.262Z,23.20
2018-07-30T02:16:53.442Z,23.10
2018-07-30T02:19:21.567Z,23.10
2018-07-30T02:21:49.679Z,23.00
2018-07-30T02:24:17.841Z,23.00
2018-07-30T02:26:45.979Z,23.00
2018-07-30T02:29:14.103Z,23.00
2018-07-30T02:31:42.271Z,23.10
2018-07-30T02:34:10.533Z,23.00
2018-07-30T02:36:38.651Z,23.10
2018-07-30T02:39:09.553Z,23.10
2018-07-30T02:41:37.821Z,23.00
2018-07-30T02:44:05.932Z,23.00
2018-07-30T02:46:34.084Z,23.00
2018-07-30T02:49:02.249Z,22.90
2018-07-30T02:51:30.528Z,22.90
2018-07-30T02:53:58.940Z,22.90
2018-07-30T02:56:27.175Z,22.80
2018-07-30T02:58:55.271Z,22.80
2018-07-30T03:01:23.407Z,22.80
2018-07-30T03:03:51.529Z,22.80
2018-07-30T03:06:19.651Z,22.80
2018-07-30T03:08:47.782Z,22.80
2018-07-30T03:11:15.904Z,22.80
2018-07-30T03:13:44.441Z,22.70
2018-07-30T03:16:12.611Z,22.70
2018-07-30T03:18:40.715Z,22.60
2018-07-30T03:21:08.979Z,22.60
2018-07-30T03:23:37.121Z,22.50
2018-07-30T03:26:05.240Z,22.50
2018-07-30T03:28:33.347Z,22.50
2018-07-30T03:31:01.476Z,22.50
2018-07-30T03:33:29.600Z,22.50
2018-07-30T03:35:57.727Z,22.40
2018-07-30T03:38:25.820Z,22.40
2018-07-30T03:40:53.976Z,22.30
2018-07-30T03:43:22.075Z,22.30
2018-07-30T03:45:50.182Z,22.30
2018-07-30T03:48:18.304Z,22.30
2018-07-30T03:50:46.447Z,22.20
2018-07-30T03:53:14.544Z,22.20
2018-07-30T03:55:42.656Z,22.30
2018-07-30T03:58:10.800Z,22.30
2018-07-30T04:00:38.963Z,22.30
2018-07-30T04:03:07.096Z,22.30
2018-07-30T04:05:35.203Z,22.30
2018-07-30T04:08:03.356Z,22.20
2018-07-30T04:10:31.464Z,22.20
2018-07-30T04:12:59.582Z,22.20
2018-07-30T04:15:27.760Z,22.20
2018-07-30T04:17:55.847Z,22.20
2018-07-30T04:20:23.938Z,22.20
2018-07-30T04:25:19.960Z,22.30
2018-07-30T04:27:48.068Z,22.40
2018-07-30T04:30:16.186Z,22.40
2018-07-30T04:32:44.319Z,22.40
2018-07-30T04:35:12.443Z,22.40
2018-07-30T04:37:40.544Z,22.40
2018-07-30T04:40:08.683Z,22.40
2018-07-30T04:42:36.783Z,22.40
2018-07-30T04:45:05.108Z,22.40
2018-07-30T04:47:33.317Z,22.40
2018-07-30T04:50:01.430Z,22.40
2018-07-30T04:52:29.583Z,22.40
2018-07-30T04:54:57.695Z,22.40
2018-07-30T04:57:25.789Z,22.50
2018-07-30T04:59:53.916Z,22.50
2018-07-30T05:02:22.240Z,22.50
2018-07-30T05:04:50.365Z,22.50
2018-07-30T05:07:18.463Z,22.50
2018-07-30T05:09:46.617Z,22.40
2018-07-30T05:12:14.848Z,22.40
2018-07-30T05:14:42.983Z,22.50
2018-07-30T05:17:11.130Z,22.50
2018-07-30T05:22:07.291Z,22.50
2018-07-30T05:24:35.466Z,22.60
2018-07-30T05:27:03.590Z,22.60
2018-07-30T05:29:31.717Z,22.70
2018-07-30T05:31:59.861Z,22.80
2018-07-30T05:34:28.014Z,22.90
2018-07-30T05:36:56.403Z,22.90
2018-07-30T05:39:24.544Z,23.00
2018-07-30T06:27:45.320Z,23.20
2018-07-30T06:30:13.633Z,26.20
2018-07-30T06:32:41.740Z,26.30
2018-07-30T06:35:09.992Z,26.40
2018-07-30T06:37:38.112Z,26.40
2018-07-30T06:40:06.453Z,26.40
2018-07-30T06:42:34.603Z,26.50
2018-07-30T06:45:02.680Z,26.60
2018-07-30T06:47:30.792Z,26.70
2018-07-30T06:49:58.903Z,26.80
2018-07-30T06:52:27.020Z,26.90
2018-07-30T06:54:55.264Z,27.00
2018-07-30T06:57:23.371Z,27.10
2018-07-30T06:59:51.504Z,27.10
2018-07-30T07:02:19.631Z,27.20
2018-07-30T07:04:47.768Z,27.30
2018-07-30T07:07:16.876Z,27.20
2018-07-30T07:09:45.693Z,27.10
2018-07-30T07:12:13.804Z,27.10
2018-07-30T07:14:42.083Z,27.10
2018-07-30T07:17:10.671Z,27.20
2018-07-30T07:19:39.172Z,27.50
2018-07-30T07:24:35.220Z,28.10
2018-07-30T07:27:03.365Z,28.40
2018-07-30T07:29:31.484Z,28.60
2018-07-30T07:32:01.203Z,28.70
2018-07-30T07:34:29.490Z,28.80
2018-07-30T07:36:57.567Z,28.80
2018-07-30T07:39:25.699Z,28.70
2018-07-30T07:41:53.869Z,28.70
2018-07-30T07:44:21.997Z,28.80
2018-07-30T07:46:50.103Z,28.80
2018-07-30T07:49:18.216Z,28.90
2018-07-30T07:51:46.307Z,29.00
2018-07-30T07:54:14.426Z,28.90
2018-07-30T07:56:42.518Z,29.00
2018-07-30T07:59:10.607Z,29.10
2018-07-30T08:01:38.694Z,29.20
2018-07-30T08:04:06.766Z,29.50
2018-07-30T08:06:35.044Z,29.80
2018-07-30T08:09:03.175Z,30.20
2018-07-30T08:11:31.255Z,30.00
2018-07-30T08:13:59.331Z,29.90
2018-07-30T08:16:27.535Z,29.90
2018-07-30T08:21:23.504Z,29.70
2018-07-30T08:23:51.729Z,29.70
2018-07-30T08:26:19.839Z,29.60
2018-07-30T08:28:47.939Z,29.50
2018-07-30T08:31:16.062Z,29.40
2018-07-30T08:33:44.233Z,29.50
2018-07-30T08:36:12.370Z,29.50
2018-07-30T08:38:40.468Z,29.40
2018-07-30T08:41:08.592Z,29.20
2018-07-30T08:43:36.929Z,29.10
2018-07-30T08:46:05.036Z,29.10
2018-07-30T08:48:33.300Z,28.90
2018-07-30T08:51:01.535Z,28.80
2018-07-30T08:53:29.696Z,28.70
2018-07-30T08:55:58.070Z,28.70
2018-07-30T08:58:26.176Z,28.60
2018-07-30T09:00:54.520Z,28.50
2018-07-30T09:03:22.608Z,28.40
2018-07-30T09:05:50.820Z,28.30
2018-07-30T09:08:18.933Z,28.30
2018-07-30T09:10:47.045Z,28.20
2018-07-30T09:13:15.168Z,28.20
2018-07-30T09:15:43.336Z,28.10
2018-07-30T09:20:39.587Z,28.00
2018-07-30T09:23:07.680Z,28.00
2018-07-30T09:28:03.763Z,28.10
2018-07-30T09:30:31.917Z,28.10
2018-07-30T09:35:28.017Z,28.40
2018-07-30T09:37:56.195Z,28.60
2018-07-30T09:40:24.351Z,29.00
2018-07-30T09:42:52.734Z,29.50
2018-07-30T09:45:20.855Z,30.10
2018-07-30T09:47:48.968Z,30.80
2018-07-30T09:52:45.208Z,31.90
2018-07-30T09:55:13.315Z,32.20
2018-07-30T09:57:41.419Z,32.40
2018-07-30T10:00:09.851Z,32.40
2018-07-30T10:07:33.819Z,32.10
2018-07-30T10:10:02.012Z,32.20
2018-07-30T10:12:30.088Z,32.40
2018-07-30T10:14:58.226Z,32.80
2018-07-30T10:17:26.319Z,33.20
2018-07-30T10:19:54.424Z,33.40
2018-07-30T10:22:22.599Z,33.50
2018-07-30T10:24:50.713Z,33.20
2018-07-30T10:27:18.838Z,33.30
2018-07-30T10:29:46.990Z,33.70
2018-07-30T10:32:15.100Z,33.80
2018-07-30T10:34:43.253Z,33.90
2018-07-30T10:37:11.371Z,34.10
2018-07-30T10:39:40.496Z,34.30
2018-07-30T10:42:08.655Z,34.00
2018-07-30T10:44:36.773Z,34.10
2018-07-30T10:47:05.062Z,33.70
2018-07-30T10:49:33.179Z,33.60
2018-07-30T10:52:01.277Z,33.80
2018-07-30T10:54:29.392Z,33.90
2018-07-30T10:56:57.489Z,33.70
2018-07-30T10:59:25.712Z,33.30
2018-07-30T11:01:53.851Z,33.00
2018-07-30T11:04:21.960Z,32.80
2018-07-30T11:06:50.084Z,32.70
2018-07-30T11:09:18.184Z,32.80
2018-07-30T11:11:46.330Z,33.00
2018-07-30T11:14:14.535Z,33.00
2018-07-30T11:16:42.696Z,33.10
2018-07-30T11:19:10.828Z,33.10
2018-07-30T11:21:38.966Z,33.00
2018-07-30T11:24:07.137Z,33.10
2018-07-30T11:26:35.275Z,33.00
2018-07-30T11:31:31.292Z,33.10
2018-07-30T11:33:59.499Z,33.20
2018-07-30T11:36:27.608Z,32.80
2018-07-30T11:38:55.714Z,32.70
2018-07-30T11:41:23.865Z,32.20
2018-07-30T11:43:52.201Z,32.30
2018-07-30T11:46:20.330Z,32.40
2018-07-30T11:48:48.527Z,32.40
2018-07-30T11:53:44.583Z,32.60
2018-07-30T11:56:12.775Z,32.50
2018-07-30T11:58:41.009Z,32.50
2018-07-30T12:01:09.271Z,32.30
2018-07-30T12:03:37.264Z,32.20
2018-07-30T12:06:05.388Z,32.30
2018-07-30T12:08:33.527Z,32.40
2018-07-30T12:11:01.673Z,32.60
2018-07-30T12:13:29.822Z,32.50
2018-07-30T12:15:57.920Z,32.40
2018-07-30T12:18:26.036Z,32.50
2018-07-30T12:20:54.321Z,32.60
2018-07-30T12:23:22.427Z,32.80
2018-07-30T12:25:50.566Z,32.80
2018-07-30T12:28:18.712Z,32.90
2018-07-30T12:30:46.881Z,32.80
2018-07-30T12:33:15.058Z,32.70
2018-07-30T12:35:43.188Z,32.60
2018-07-30T12:38:11.316Z,32.60
2018-07-30T12:57:22.624Z,32.60
2018-07-30T12:59:50.965Z,32.50
2018-07-30T13:02:19.165Z,32.40
2018-07-30T13:04:47.525Z,32.40
2018-07-30T13:07:15.587Z,32.40
2018-07-30T13:09:43.670Z,32.30
2018-07-30T13:12:11.736Z,32.30
2018-07-30T13:14:39.814Z,32.30
2018-07-30T13:17:07.882Z,32.20
2018-07-30T13:19:36.005Z,32.20
2018-07-30T13:22:04.186Z,32.30
2018-07-30T13:24:32.322Z,32.40
2018-07-30T13:27:00.455Z,32.50
2018-07-30T13:29:28.543Z,32.50
2018-07-30T13:31:56.707Z,32.40
2018-07-30T13:34:24.823Z,32.50
2018-07-30T13:36:52.941Z,32.60
2018-07-30T13:39:21.083Z,32.50
2018-07-30T13:41:49.219Z,32.30
2018-07-30T13:44:17.351Z,32.50
2018-07-30T13:46:45.460Z,32.50
2018-07-30T13:49:13.587Z,32.50
2018-07-30T13:51:41.732Z,32.60
2018-07-30T13:54:09.956Z,32.70
2018-07-30T13:56:38.016Z,32.60
2018-07-30T13:59:06.144Z,32.60
2018-07-30T14:01:34.244Z,32.50
2018-07-30T14:04:02.327Z,32.60
2018-07-30T14:06:30.555Z,32.40
2018-07-30T14:08:58.611Z,32.30
2018-07-30T14:11:26.727Z,32.30
2018-07-30T14:13:54.848Z,32.20
2018-07-30T14:16:22.912Z,32.10
2018-07-30T14:18:51.004Z,32.00
2018-07-30T14:21:19.044Z,32.00
2018-07-30T14:23:47.128Z,32.00
2018-07-30T14:26:15.216Z,32.00
2018-07-30T14:28:43.324Z,32.00
2018-07-30T14:31:11.404Z,32.10
2018-07-30T14:33:39.487Z,32.20
2018-07-30T14:36:07.593Z,32.20
2018-07-30T14:38:35.671Z,32.20
2018-07-30T14:41:03.741Z,32.20
2018-07-30T14:43:31.836Z,32.10
2018-07-30T14:45:59.945Z,32.10
2018-07-30T14:48:28.024Z,32.00
2018-07-30T14:50:56.155Z,32.00
2018-07-30T14:53:24.230Z,31.90
2018-07-30T14:55:52.338Z,31.80
2018-07-30T14:58:20.431Z,31.90
2018-07-30T15:00:48.573Z,31.90
2018-07-30T15:03:16.756Z,32.00
2018-07-30T15:05:44.838Z,32.00
2018-07-30T15:08:12.955Z,31.90
2018-07-30T15:10:41.231Z,31.90
2018-07-30T15:13:09.376Z,31.90
2018-07-30T15:15:37.503Z,31.90
2018-07-30T15:18:05.724Z,31.90
2018-07-30T15:20:33.887Z,31.90
2018-07-30T15:23:01.999Z,31.90
2018-07-30T15:25:30.104Z,31.90
2018-07-30T15:27:58.223Z,31.90
2018-07-30T15:30:26.355Z,31.80
2018-07-30T15:32:54.483Z,31.90
2018-07-30T15:35:22.583Z,31.90
2018-07-30T15:37:50.691Z,31.80
2018-07-30T15:40:18.839Z,31.80
2018-07-30T15:42:46.975Z,31.70
2018-07-30T15:45:15.043Z,31.70
2018-07-30T15:47:43.159Z,31.60
2018-07-30T15:50:11.271Z,31.60
2018-07-30T15:52:39.395Z,31.50
2018-07-30T15:55:07.581Z,31.50
2018-07-30T15:57:35.691Z,31.30
2018-07-30T16:02:32.684Z,31.20
2018-07-30T16:07:28.935Z,31.20
2018-07-30T16:09:57.044Z,31.20
2018-07-30T16:12:25.163Z,31.20
2018-07-30T16:14:53.292Z,31.20
2018-07-30T16:17:21.396Z,31.20
2018-07-30T16:19:49.527Z,31.30
2018-07-30T16:22:17.651Z,31.40
2018-07-30T16:24:45.907Z,31.40
2018-07-30T16:27:14.035Z,31.40
2018-07-30T16:29:42.144Z,31.50
2018-07-30T16:32:10.294Z,31.50
2018-07-30T16:34:38.399Z,31.60
2018-07-30T16:37:06.625Z,31.60
2018-07-30T16:39:34.731Z,31.70
2018-07-30T16:42:03.016Z,31.70
2018-07-30T16:44:31.147Z,31.70
2018-07-30T16:46:59.268Z,31.80
2018-07-30T16:49:27.347Z,31.80
2018-07-30T16:51:55.461Z,31.80
2018-07-30T16:54:23.577Z,31.80
2018-07-30T16:56:51.672Z,31.80
2018-07-30T16:59:19.792Z,31.90
2018-07-30T17:01:47.902Z,31.90
2018-07-30T17:04:15.999Z,31.90
2018-07-30T17:06:44.331Z,32.00
2018-07-30T17:09:12.795Z,32.00
2018-07-30T17:11:41.226Z,31.90
2018-07-30T17:14:09.317Z,31.80
2018-07-30T17:16:37.418Z,31.60
2018-07-30T17:19:05.895Z,31.50
2018-07-30T17:21:33.975Z,31.40
2018-07-30T17:24:02.181Z,31.40
2018-07-30T17:26:30.376Z,31.30
2018-07-30T17:28:58.457Z,31.30
2018-07-30T17:31:26.551Z,31.20
2018-07-30T17:33:54.636Z,31.20
2018-07-30T17:36:22.733Z,31.20
2018-07-30T17:38:50.808Z,31.10
2018-07-30T17:41:18.912Z,31.00
2018-07-30T17:43:47.024Z,30.90
2018-07-30T17:46:15.142Z,30.90
2018-07-30T17:48:43.287Z,30.80
2018-07-30T17:51:11.432Z,30.70
2018-07-30T17:53:39.548Z,30.70
2018-07-30T17:56:07.644Z,30.60
2018-07-30T17:58:35.751Z,30.60
2018-07-30T18:03:31.787Z,30.50
2018-07-30T18:05:59.939Z,30.50
2018-07-30T18:08:28.079Z,30.50
2018-07-30T18:10:56.219Z,30.40
2018-07-30T18:13:24.347Z,30.40
2018-07-30T18:15:52.531Z,30.40
2018-07-30T18:18:20.635Z,30.40
2018-07-30T18:20:49.044Z,30.40
2018-07-30T18:23:17.222Z,30.40
2018-07-30T18:25:45.350Z,30.40
2018-07-30T18:28:13.605Z,30.30
2018-07-30T18:30:41.695Z,30.30
2018-07-30T18:33:10.062Z,30.20
2018-07-30T18:35:38.404Z,30.20
2018-07-30T18:38:06.531Z,30.20
2018-07-30T18:40:34.629Z,30.10
2018-07-30T18:43:02.734Z,30.10
2018-07-30T18:45:30.839Z,30.00
2018-07-30T18:47:58.930Z,30.00
2018-07-30T18:50:27.006Z,29.90
2018-07-30T18:52:55.098Z,29.90
2018-07-30T18:55:23.229Z,29.90
2018-07-30T18:57:51.351Z,29.90
2018-07-30T19:00:19.472Z,29.90
2018-07-30T19:02:47.553Z,29.90
2018-07-30T19:07:43.586Z,29.80
2018-07-30T19:10:11.875Z,29.80
2018-07-30T19:12:39.968Z,29.80
2018-07-30T19:15:08.147Z,29.70
2018-07-30T19:20:04.571Z,29.70
2018-07-30T19:22:32.887Z,29.60
2018-07-30T19:25:00.999Z,29.60
2018-07-30T19:27:29.123Z,29.50
2018-07-30T19:29:57.200Z,29.50
2018-07-30T19:32:25.355Z,29.40
2018-07-30T19:34:53.604Z,29.40
2018-07-30T19:37:21.798Z,29.30
2018-07-30T19:39:49.852Z,29.30
2018-07-30T19:42:17.968Z,29.30
2018-07-30T19:44:46.119Z,29.20
2018-07-30T19:47:14.135Z,29.20
2018-07-30T19:49:42.291Z,29.20
2018-07-30T19:52:11.681Z,29.20
2018-07-30T19:54:39.774Z,29.10
2018-07-30T19:57:09.469Z,29.10
2018-07-30T19:59:39.183Z,29.10
2018-07-30T20:02:08.217Z,29.00
2018-07-30T20:04:36.315Z,29.00
2018-07-30T20:07:05.063Z,29.00
2018-07-30T20:09:33.883Z,28.90
2018-07-30T20:12:02.627Z,28.90
2018-07-30T20:14:31.102Z,28.80
2018-07-30T20:17:00.051Z,28.70
2018-07-30T20:19:30.090Z,28.70
2018-07-30T20:21:58.379Z,28.60
2018-07-30T20:24:26.591Z,28.60
2018-07-30T20:26:55.487Z,28.60
2018-07-30T20:29:23.911Z,28.50
2018-07-30T20:31:52.195Z,28.50
2018-07-30T20:34:20.855Z,28.50
2018-07-30T20:36:49.462Z,28.50
2018-07-30T20:39:17.546Z,28.50
2018-07-30T20:41:45.635Z,28.40
2018-07-30T20:44:13.749Z,28.40
2018-07-30T20:46:41.848Z,28.30
2018-07-30T20:49:09.971Z,28.30
2018-07-30T20:51:38.082Z,28.30
2018-07-30T20:54:06.179Z,28.30
2018-07-30T20:56:34.293Z,28.20
2018-07-30T20:59:02.398Z,28.20
2018-07-30T21:01:30.678Z,28.20
2018-07-30T21:03:58.775Z,28.20
2018-07-30T21:06:26.987Z,28.20
2018-07-30T21:08:55.129Z,28.20
2018-07-30T21:11:23.237Z,28.20
2018-07-30T21:13:51.347Z,28.10
2018-07-30T21:16:19.415Z,28.10
2018-07-30T21:18:47.562Z,28.00
2018-07-30T21:21:15.707Z,28.00
2018-07-30T21:23:43.767Z,27.90
2018-07-30T21:26:11.899Z,27.80
2018-07-30T21:28:39.974Z,27.80
2018-07-30T21:31:08.079Z,27.80
2018-07-30T21:33:36.301Z,27.80
2018-07-30T21:36:05.470Z,27.80
2018-07-30T21:38:33.572Z,27.80
2018-07-30T21:41:01.710Z,27.70
2018-07-30T21:43:31.447Z,27.70
2018-07-30T21:45:59.563Z,27.70
2018-07-30T21:48:27.831Z,27.60
2018-07-30T21:50:55.907Z,27.60
2018-07-30T21:53:24.015Z,27.60
2018-07-30T21:55:53.306Z,27.60
2018-07-30T21:58:21.402Z,27.60
2018-07-30T22:00:55.419Z,27.50
2018-07-30T22:03:23.672Z,27.40
2018-07-30T22:05:57.433Z,27.30
2018-07-30T22:08:25.871Z,27.30
2018-07-30T22:10:54.016Z,27.20
2018-07-30T22:13:22.166Z,27.10
2018-07-30T22:15:50.292Z,27.10
2018-07-30T22:18:18.835Z,27.10
2018-07-30T22:20:46.955Z,27.10
2018-07-30T22:23:15.103Z,27.00
2018-07-30T22:28:11.130Z,27.00
2018-07-30T22:30:39.263Z,26.90
2018-07-30T22:33:07.343Z,26.90
2018-07-30T22:35:35.455Z,26.90
2018-07-30T22:38:03.575Z,26.80
2018-07-30T22:40:31.655Z,26.80
2018-07-30T22:42:59.797Z,26.90
2018-07-30T22:45:27.873Z,26.90
2018-07-30T22:47:55.999Z,26.90
2018-07-30T22:50:24.145Z,26.90
2018-07-30T22:52:52.223Z,26.80
2018-07-30T22:55:20.339Z,26.80
2018-07-30T22:57:48.454Z,26.80
2018-07-30T23:00:16.595Z,26.80
2018-07-30T23:02:44.803Z,26.80
2018-07-30T23:05:12.943Z,26.80
2018-07-30T23:07:41.088Z,26.80
2018-07-30T23:10:09.195Z,26.80
2018-07-30T23:12:37.331Z,26.70
2018-07-30T23:15:05.726Z,26.80
2018-07-30T23:17:33.848Z,26.80
2018-07-30T23:20:01.951Z,26.80
2018-07-30T23:22:30.099Z,26.80
2018-07-30T23:24:58.227Z,26.80
2018-07-30T23:27:26.321Z,26.70
2018-07-30T23:29:54.426Z,26.70
2018-07-30T23:32:22.604Z,26.60
2018-07-30T23:34:50.765Z,26.50
2018-07-30T23:37:18.982Z,26.50
2018-07-30T23:39:46.951Z,26.40
2018-07-30T23:42:15.078Z,26.40
2018-07-30T23:44:43.187Z,26.30
2018-07-30T23:47:11.277Z,26.30
2018-07-30T23:49:39.363Z,26.30
2018-07-30T23:52:07.488Z,26.20
2018-07-30T23:54:35.659Z,26.20
2018-07-30T23:57:03.839Z,26.20
2018-07-30T23:59:31.951Z,26.20
